CYHA

Quaqtaq Airport

Quaqtaq, Quebec, Canada
METAR CYHA 182100Z 35007KT 3/4SM -DZ BR OVC002 02/02 A2978 RMK FG6ST2 LAST STFD OBS/NEXT 191200 UTC SLP087
Observed Flight Rules
Jul-18 @ 21:00 UTC (11 hours ago) Instrument Flight Rules
Wind Visibility Clouds Conditions
350° at 7 knots 3/4 miles
  • Overcast at 200' AGL
  • Light Drizzle
  • Mist
Temperatures Readings
Current 2°C / 36°F
Dewpoint 2°C / 36°F
Humidity 100%
Altimeter 29.78" Hg
Pressure 1008.7 hPa
Elevation 30
METAR CYHA 182100Z 35007KT 3/4SM -DZ BR OVC002 02/02 A2978 RMK FG6ST2 LAST STFD OBS/NEXT 191200 UTC SLP087
Observed Flight Rules
Jul-18 @ 21:00 UTC
(11 hours ago)
LIFR
Wind Visibility
350° at 7 knots 3/4 miles
Clouds
  • Overcast at 200' AGL
Conditions
  • Light Drizzle
  • Mist
Temperature Dewpoint
2°C / 36°F 2°C / 36°F
Humidity Altimeter Pressure
100% 29.78" Hg 1008.7 hPa